Nearby METAR Reports

 

ENCN - Kristiansand/Kje, Norway
Distance from station: N 17km
Oppdatert: 01/10/2022 11:20
Yr, Delvis skyet
Yr, Delvis skyet
 Vind fra S
Vind: S 20 km/h
Temperatur: 12°C
Duggpunkt: 11°C
Fuktighet: 94%
Barometer: 993 hPa
Oversikt: Yr
Clouds: Delvis skyet
Visibility: 10 km
Cloud details: Few Clouds 30 m
Delvis skyet 244 m
2022/10/01 09:20 ENCN 010920Z 17011KT 9999 DZ FEW001 SCT008 12/11 Q0993 RERA
EKSN - Sindal Airport, Denmark
Distance from station: ØSØ 145km
Oppdatert: 30/12/2021 14:50
NOT Current
Mist, Hovedsaklig skyet
Mist, Hovedsaklig skyet
 Vind fra SV
Vind: SV 26 km/h
Temperatur: 7°C
Wind Chill: 3°C
Duggpunkt: 7°C
Fuktighet: 100%
Barometer: 999 hPa
Oversikt: Mist
Clouds: Hovedsaklig skyet
Visibility: 5 km
Cloud details: Delvis skyet 183 m
Hovedsaklig skyet 244 m
2021/12/30 13:50 EKSN 301350Z 23014KT 4500 BR SCT006 BKN008 07/07 Q0999
 
EKYT - Alborg, Denmark
Distance from station: SØ 153km
Oppdatert: 01/10/2022 10:50
Lett regn, Overskyet
Lett regn, Overskyet
 Vind fra SSØ
Vind: SSØ 28 km/h
Temperatur: 11°C
Duggpunkt: 9°C
Fuktighet: 88%
Barometer: 996 hPa
Oversikt: Lett regn
Clouds: Overskyet
Visibility: 7 km
Cloud details: Few Clouds 610 m
Overskyet 1311 m
2022/10/01 08:50 EKYT 010850Z AUTO 16015KT 7000 -RA FEW020/// OVC043/// 11/09 Q0996
ENSN - Skien/Geiterygge, Norway
Distance from station: NØ 153km
Oppdatert: 09/11/2015 09:50
NOT Current
Klart
Klart
 Vind fra SSV
Vind: SSV 19 km/h, Vindkast: 41 km/h
Temperatur: 7°C
Wind Chill: 4°C
Duggpunkt: 3°C
Fuktighet: 76%
Barometer: 1000 hPa
Oversikt: Klart
Visibility: greater than 10 km
2015/11/09 08:50 ENSN 090850Z 20010G22KT 150V240 CAVOK 07/03 Q1000
 
ENZV - Stavanger/Sola(A, Norway
Distance from station: NV 166km
Oppdatert: 01/10/2022 11:20
Delvis skyet
Delvis skyet
 Vind fra varies
Vind: varies 6 km/h
Temperatur: 15°C
Duggpunkt: 10°C
Fuktighet: 72%
Barometer: 993 hPa
Clouds: Delvis skyet
Visibility: 10 km
Cloud details: Few Clouds 396 m
Delvis skyet 762 m
2022/10/01 09:20 ENZV 010920Z VRB03KT 9999 FEW013 SCT025 15/10 Q0993
ENNO - Notodden, Norway
Distance from station: NNØ 182km
Oppdatert: 30/09/2022 18:50
NOT Current
Hovedsaklig skyet
Hovedsaklig skyet
 Vind fra varies
Vind: varies 4 km/h
Temperatur: 11°C
Duggpunkt: 6°C
Fuktighet: 72%
Barometer: 1004 hPa
Clouds: Hovedsaklig skyet
Visibility: 10 km
Cloud details: Hovedsaklig skyet 1676 m
2022/09/30 16:50 ENNO 301650Z VRB02KT 9999 BKN055 11/06 Q1004
 
ENTO - Torp (civ/Nor-Af, Norway
Distance from station: NØ 183km
Oppdatert: 01/10/2022 11:20
Lett regn, Hovedsaklig skyet
Lett regn, Hovedsaklig skyet
 Vind fra S
Vind: S 22 km/h
Temperatur: 12°C
Duggpunkt: 11°C
Fuktighet: 94%
Barometer: 997 hPa
Oversikt: Lett regn
Clouds: Hovedsaklig skyet
Visibility: 10 km
Cloud details: Few Clouds 396 m
Hovedsaklig skyet 884 m
2022/10/01 09:20 ENTO 010920Z 17012KT 9999 -RA FEW013 BKN029 12/11 Q0997 TEMPO BKN014
EKKA - Karup (dan-Afb), Denmark
Distance from station: SSØ 209km
Oppdatert: 01/10/2022 11:10
Regn, Overskyet
Regn, Overskyet
 Vind fra S
Vind: S 17 km/h
Temperatur: 10°C
Wind Chill: 8°C
Duggpunkt: 9°C
Fuktighet: 94%
Barometer: 996 hPa
Oversikt: Regn
Clouds: Overskyet
Visibility: 10 km
Cloud details: Overskyet 244 m
2022/10/01 09:10 EKKA 010910Z AUTO 17009KT 9999 RA OVC008/// 10/09 Q0996
 
ENHD - Haugesund/Karmoy, Norway
Distance from station: NV 216km
Oppdatert: 01/10/2022 11:20
Delvis skyet
Delvis skyet
 Vind fra SSV
Vind: SSV 9 km/h
Temperatur: 14°C
Duggpunkt: 10°C
Fuktighet: 77%
Barometer: 993 hPa
Clouds: Delvis skyet
Visibility: 10 km
Cloud details: Few Clouds 823 m
Delvis skyet 1067 m
2022/10/01 09:20 ENHD 010920Z 20005KT 9999 FEW027 SCT035 14/10 Q0993
ENRY - Rygge (nor-Afb), Norway
Distance from station: NØ 216km
Oppdatert: 01/10/2022 11:20
Yr, Delvis skyet
Yr, Delvis skyet
 Vind fra SSØ
Vind: SSØ 19 km/h
Temperatur: 11°C
Duggpunkt: 10°C
Fuktighet: 94%
Barometer: 998 hPa
Oversikt: Yr
Clouds: Delvis skyet
Visibility: 10 km
Cloud details: Few Clouds 366 m
Delvis skyet 701 m
2022/10/01 09:20 ENRY 010920Z 15010KT 9999 -DZ FEW012 SCT023 11/10 Q0998
 
ESGP - Goteborg/Save (a, Sweden
Distance from station: Ø 230km
Oppdatert: 01/10/2022 10:50
Few Clouds
Few Clouds
 Vind fra SØ
Vind: SØ 20 km/h
Temperatur: 12°C
Duggpunkt: 9°C
Fuktighet: 82%
Barometer: 999 hPa
Clouds: Few Clouds
Visibility: 10 km
Cloud details: Few Clouds 457 m
2022/10/01 08:50 ESGP 010850Z 14011KT 9999 FEW015 12/09 Q0999
EKVJ - Stauning Airport, Denmark
Distance from station: S 233km
Oppdatert: 29/09/2022 15:50
NOT Current
Delvis skyet
Delvis skyet
 Vind fra NNØ
Vind: NNØ 26 km/h
Temperatur: 13°C
Duggpunkt: 8°C
Fuktighet: 72%
Barometer: 1002 hPa
Clouds: Delvis skyet
Visibility: 10 km
Cloud details: Few Clouds 853 m
Delvis skyet 1219 m
2022/09/29 13:50 EKVJ 291350Z 03014KT 9999 FEW028 SCT040 13/08 Q1002
 
ENSO - Stord/Soerstokke, Norway
Distance from station: NV 246km
Oppdatert: 30/09/2022 21:50
NOT Current
Delvis skyet
Delvis skyet
 Vind fra SØ
Vind: SØ 30 km/h
Temperatur: 13°C
Duggpunkt: 6°C
Fuktighet: 63%
Barometer: 994 hPa
Clouds: Delvis skyet
Visibility: 10 km
Cloud details: Delvis skyet 1250 m
Delvis skyet 1829 m
2022/09/30 19:50 ENSO 301950Z 14016KT 9999 SCT041 SCT060 13/06 Q0994
EKAH - Tirstrup (civ/Mi, Denmark
Distance from station: SØ 252km
Oppdatert: 01/10/2022 10:50
Hovedsaklig skyet
Hovedsaklig skyet
 Vind fra SSØ
Vind: SSØ 15 km/h, Vindkast: 39 km/h
Temperatur: 12°C
Duggpunkt: 9°C
Fuktighet: 82%
Barometer: 998 hPa
Clouds: Hovedsaklig skyet
Visibility: 10 km
Cloud details: Hovedsaklig skyet 640 m
Hovedsaklig skyet 1615 m
2022/10/01 08:50 EKAH 010850Z AUTO 16008G21KT 120V200 9999 BKN021/// BKN053/// 12/09 Q0998
 
ESGT - Trollhattan (pvt, Sweden
Distance from station: Ø 255km
Oppdatert: 01/10/2022 10:50
Delvis skyet
Delvis skyet
 Vind fra SSØ
Vind: SSØ 22 km/h
Temperatur: 11°C
Duggpunkt: 9°C
Fuktighet: 88%
Barometer: 1000 hPa
Clouds: Delvis skyet
Visibility: 10 km
Cloud details: Delvis skyet 3658 m
2022/10/01 08:50 ESGT 010850Z AUTO 16012KT 9999 SCT120/// 11/09 Q1000
ESGG - Goteborg/Landvet, Sweden
Distance from station: Ø 257km
Oppdatert: 01/10/2022 10:50
Klart
Klart
 Vind fra SØ
Vind: SØ 17 km/h
Temperatur: 10°C
Wind Chill: 8°C
Duggpunkt: 8°C
Fuktighet: 88%
Barometer: 1000 hPa
Oversikt: Klart
Visibility: greater than 10 km
2022/10/01 08:50 ESGG 010850Z 14009KT CAVOK 10/08 Q1000
 
EKBI - Billund Airport, Denmark
Distance from station: SSØ 269km
Oppdatert: 01/10/2022 10:50
Regn, Overskyet
Regn, Overskyet
 Vind fra SSØ
Vind: SSØ 17 km/h
Temperatur: 10°C
Wind Chill: 8°C
Duggpunkt: 9°C
Fuktighet: 94%
Barometer: 996 hPa
Oversikt: Regn
Clouds: Overskyet
Visibility: 10 km
Cloud details: Overskyet 213 m
2022/10/01 08:50 EKBI 010850Z AUTO 15009KT 120V180 9999 RA OVC007/// 10/09 Q0996
EKHN - Horns Rev B Heli, Denmark
Distance from station: S 274km
Oppdatert: 09/08/2016 14:20
NOT Current
Few Clouds
Few Clouds
 Vind fra VNV
Vind: VNV 50 km/h, Vindkast: 72 km/h
Temperatur: 14°C
Duggpunkt: 10°C
Fuktighet: 77%
Barometer: 1018 hPa
Clouds: Few Clouds
Visibility: 10 km
Cloud details: Few Clouds 1158 m
Few Clouds 2438 m
2016/08/09 12:20 EKHN 091220Z AUTO 29027G39KT 270V340 9999NDV FEW038/// FEW080/// 14/10 Q1018
 
ESIB - Satenas (swe-Afb, Sweden
Distance from station: Ø 277km
Oppdatert: 01/10/2022 10:50
Few Clouds
Few Clouds
 Vind fra SSØ
Vind: SSØ 22 km/h
Temperatur: 12°C
Duggpunkt: 9°C
Fuktighet: 82%
Barometer: 1000 hPa
Clouds: Few Clouds
Visibility: 10 km
Cloud details: Few Clouds 6096 m
2022/10/01 08:50 ESIB 010850Z AUTO 15012KT 9999 FEW200/// 12/09 Q1000
EKHR - Horns Rev B Heli, Denmark
Distance from station: S 282km
Oppdatert: 04/10/2016 06:20
NOT Current
Klart
Klart
 Vind fra Ø
Vind: Ø 4 km/h
Temperatur: 11°C
Duggpunkt: -49°C
Fuktighet: 0%
Barometer: 1038 hPa
Clouds: Klart
Visibility: 10 km
2016/10/04 04:20 EKHR 040420Z AUTO 08002KT 9999NDV NCD 11/M49 Q1038